• Join FlightAware (Why Join?)
  • Login
  • US Flag 
05:39PM EST


 

Airport Tracker/Info


-or-


 

Live Flight TrackerFlight Track Log ✈ UPS2292 ✈ 02-Oct-2013 ✈ KMCO - KCAE

Flight Track Log - Related Links

Times and Time Zones

All times are in EDT time to prevent confusion due to time zone crossing. See the UPS2292 flight status page for this flight to view local times or setup timezone preferences in your user account.

Time Position Orientation Groundspeed Altitude Reporting Facility
EDT Latitude Longitude Course Direction KTS MPH feet Rate Location/Type
04:51PM 28.4490 -81.3220 North 188 216 1,800  Level FlightAware
04:51PM 28.4616 -81.3213 North 192 221 3,100 3,333 Climbing FlightAware ADS-B
04:51PM 28.5020 -81.3190 North 259 298 4,800 3,130 Climbing FlightAware
04:52PM 28.5144 -81.3177 North 279 321 5,500 5,189 Climbing FlightAware ADS-B
04:52PM 28.5504 -81.3139 North 288 331 8,000 4,531 Climbing FlightAware ADS-B
04:52PM 28.5801 -81.3114 North 293 337 9,200 3,000 Climbing FlightAware ADS-B
04:53PM 28.6201 -81.3069 North 308 354 10,600 2,423 Climbing FlightAware ADS-B
04:53PM 28.6534 -81.3043 North 346 398 11,300 2,600 Climbing FlightAware ADS-B
04:54PM 28.7200 -81.3149 352° North 388 447 13,200 3,343 Climbing FlightAware ADS-B
04:54PM 28.7764 -81.3260 350° North 403 464 15,200 3,130 Climbing FlightAware ADS-B
04:55PM 28.8474 -81.3399 350° North 417 480 16,800 2,559 Climbing FlightAware ADS-B
04:56PM 28.9072 -81.3514 350° North 433 498 18,100 2,414 Climbing FlightAware ADS-B
04:57PM 29.0220 -81.3740 350° North 449 517 20,300 2,274 Climbing FlightAware
04:57PM 29.1000 -81.3880 351° North 464 534 21,700 2,282 Climbing FlightAware
04:58PM 29.1680 -81.3960 354° North 469 540 23,000 2,435 Climbing FlightAware
04:58PM 29.2510 -81.4040 355° North 480 552 24,500 2,500 Climbing FlightAware
04:59PM 29.3330 -81.4120 355° North 487 560 26,000 2,522 Climbing FlightAware
05:00PM 29.4060 -81.4190 355° North 481 554 27,400 2,435 Climbing FlightAware
05:00PM 29.4860 -81.4260 356° North 474 545 28,800 2,451 Climbing FlightAware
05:01PM 29.5620 -81.4340 355° North 464 534 30,300 1,941 Climbing FlightAware
05:01PM 29.6310 -81.4410 355° North 462 532 31,000 592 Climbing FlightAware
05:02PM 29.7100 -81.4490 355° North 462 532 31,000  Level FlightAware
05:02PM 29.7830 -81.4560 355° North 466 536 31,000  Level FlightAware
05:03PM 29.8630 -81.4640 355° North 473 544 31,000  Level FlightAware
05:04PM 29.9400 -81.4710 355° North 475 547 31,000  Level FlightAware
05:04PM 30.0100 -81.4780 355° North 476 548 31,000  Level FlightAware
05:05PM 30.0900 -81.4860 355° North 475 547 31,000  Level FlightAware
05:05PM 30.1650 -81.4930 355° North 475 547 31,000  Level FlightAware
05:06PM 30.2600 -81.5030 355° North 475 547 31,000  Level FlightAware
05:07PM 30.3400 -81.5090 356° North 478 550 31,000  Level FlightAware
05:07PM 30.4040 -81.5060 North 479 551 31,000  Level FlightAware
05:08PM 30.4730 -81.5000 North 478 550 31,000  Level FlightAware
05:08PM 30.5530 -81.4930 North 480 552 31,000  Level FlightAware
05:09PM 30.6270 -81.4870 North 482 555 31,000  Level FlightAware
05:09PM 30.7140 -81.4800 North 483 556 31,000  Level FlightAware
05:10PM 30.7870 -81.4740 North 483 556 31,000  Level FlightAware
05:11PM 30.8650 -81.4680 North 484 557 31,000  Level FlightAware
05:12PM 30.9900 -81.4580 North 474 545 31,000  Level FlightAware
05:12PM 31.0770 -81.4510 North 470 541 31,000  Level FlightAware
05:13PM 31.1800 -81.4420 North 469 540 31,000  Level FlightAware
05:14PM 31.2520 -81.4360 North 469 540 31,000  Level FlightAware
05:14PM 31.3650 -81.4070 12° North 473 544 31,000  Level FlightAware
05:15PM 31.4330 -81.3900 12° North 473 544 31,000  Level FlightAware
05:16PM 31.5130 -81.3680 13° North 477 549 31,000  Level FlightAware
05:16PM 31.5840 -81.3500 12° North 477 549 31,000  Level FlightAware
05:17PM 31.6660 -81.3280 13° North 484 557 31,000  Level FlightAware
05:18PM 31.7540 -81.3050 13° North 485 558 31,000  Level FlightAware
05:18PM 31.8220 -81.2860 13° North 485 558 31,000  Level FlightAware
05:19PM 31.9010 -81.2660 12° North 481 554 31,000  Level FlightAware
05:19PM 31.9780 -81.2450 13° North 476 548 31,000  Level FlightAware
05:20PM 32.0580 -81.2240 13° North 475 547 31,000  Level FlightAware
05:20PM 32.1380 -81.2040 12° North 476 548 31,000 -405 Level FlightAware
05:21PM 32.2010 -81.1950 North 473 544 30,500 -1,769 Descending FlightAware
05:22PM 32.3200 -81.1850 North 481 554 28,700 -2,176 Descending FlightAware
05:23PM 32.4230 -81.1770 North 475 547 27,200 -1,976 Descending FlightAware
05:23PM 32.5010 -81.1700 North 464 534 26,000 -1,739 Descending FlightAware
05:24PM 32.5710 -81.1640 North 454 522 25,200 -882 Descending FlightAware
05:24PM 32.6430 -81.1580 North 450 518 25,000 -171 Descending FlightAware
05:25PM 32.7180 -81.1520 North 454 522 25,000  Level FlightAware
05:25PM 32.7850 -81.1460 North 454 522 25,000  Level FlightAware
05:26PM 32.8580 -81.1400 North 456 525 25,000 111 Level FlightAware
05:26PM 32.8990 -81.1290 13° North 457 526 25,100  Climbing FlightAware
05:27PM 32.9680 -81.0930 24° Northeast 458 527 25,000 -400 Descending FlightAware
05:28PM 33.0440 -81.0540 23° Northeast 458 527 24,600 -700 Descending FlightAware
05:28PM 33.0880 -81.0460 North 454 522 24,300 -655 Descending FlightAware
05:28PM 33.1600 -81.0440 North 450 518 24,000 -1,840 Descending FlightAware
05:29PM 33.2410 -81.0450 359° North 433 498 22,000 -3,549 Descending FlightAware
05:30PM 33.3020 -81.0460 359° North 419 482 19,800 -4,378 Descending FlightAware
05:30PM 33.3860 -81.0470 359° North 400 460 16,600 -4,216 Descending FlightAware
05:31PM 33.4400 -81.0480 359° North 384 442 14,600 -3,857 Descending FlightAware
05:32PM 33.5080 -81.0490 359° North 365 420 12,100 -3,250 Descending FlightAware
05:32PM 33.5610 -81.0500 359° North 336 387 10,700 -2,129 Descending FlightAware
05:33PM 33.6050 -81.0500 360° North 302 348 9,900 -2,100 Descending FlightAware
05:33PM 33.6210 -81.0520 354° North 300 345 9,300 -2,667 Descending FlightAware
05:33PM 33.6290 -81.0540 348° North 300 345 9,100 -2,118 Descending FlightAware
05:33PM 33.6400 -81.0610 332° Northwest 297 342 8,700 -2,824 Descending FlightAware
05:33PM 33.6490 -81.0710 317° Northwest 295 339 8,300 -3,000 Descending FlightAware
05:33PM 33.6530 -81.0760 314° West 295 339 8,100 -2,769 Descending FlightAware
05:33PM 33.6580 -81.0890 295° West 291 335 7,700 -2,211 Descending FlightAware
05:34PM 33.6640 -81.1050 294° West 282 325 7,400 -2,270 Descending FlightAware
05:34PM 33.6770 -81.1410 293° West 272 313 6,300 -2,333 Descending FlightAware
05:34PM 33.6840 -81.1540 303° West 266 306 6,000 -1,895 Descending FlightAware
05:34PM 33.6910 -81.1630 313° West 264 304 5,700 -2,333 Descending FlightAware
05:34PM 33.7010 -81.1690 333° Northwest 261 300 5,300 -2,483 Descending FlightAware
05:35PM 33.7230 -81.1770 343° North 258 297 4,500 -2,154 Descending FlightAware
05:35PM 33.7460 -81.1830 348° North 250 288 3,900 -1,385 Descending FlightAware
05:35PM 33.7680 -81.1810 North 228 262 3,600 -686 Descending FlightAware
05:36PM 33.7840 -81.1810 360° North 216 249 3,500 -682 Descending FlightAware
05:36PM 33.8100 -81.1820 358° North 195 224 3,100 -1,149 Descending FlightAware
05:36PM 33.8270 -81.1860 349° North 186 214 2,600 -1,333 Descending FlightAware
05:37PM 33.8410 -81.1870 357° North 175 201 2,300 -923 Descending FlightAware
05:37PM 33.8580 -81.1880 357° North 161 185 2,000 -750 Descending FlightAware
05:38PM 33.8750 -81.1850 North 134 154 1,700 -857 Descending FlightAware
05:38PM 33.8790 -81.1810 40° Northeast 130 150 1,500 -1,034 Descending FlightAware
05:38PM 33.8880 -81.1710 43° Northeast 127 146 1,200 -686 Descending FlightAware
05:38PM 33.8940 -81.1640 44° Northeast 127 146 1,100 -686 Descending FlightAware
05:39PM 33.9030 -81.1540 43° Northeast 125 144 800 -732 Descending FlightAware
05:39PM 33.9110 -81.1440 46° Northeast 122 140 600 -649 Descending FlightAware
05:39PM 33.9190 -81.1360 40° Northeast 123 142 400 -649 Descending FlightAware
05:40PM 33.9260 -81.1270 47° Northeast 123 142 200 -600 Descending FlightAware
05:40PM 33.9340 -81.1170 46° Northeast 105 121 -571 Descending FlightAware